createdAt,value
2022-10-05T00:02:28.834Z,0.85
2022-10-05T00:05:28.548Z,0.77
2022-10-05T00:08:20.959Z,0.75
2022-10-05T00:11:10.021Z,1.42
2022-10-05T00:13:59.677Z,1.02
2022-10-05T00:16:51.032Z,0.85
2022-10-05T00:19:40.277Z,1.38
2022-10-05T00:22:33.592Z,0.70
2022-10-05T00:25:23.588Z,0.70
2022-10-05T00:28:23.178Z,0.82
2022-10-05T00:31:17.069Z,0.57
2022-10-05T00:34:05.715Z,0.60
2022-10-05T00:36:55.414Z,0.82
2022-10-05T00:39:48.200Z,2.53
2022-10-05T00:42:42.098Z,0.60
2022-10-05T00:45:33.292Z,0.50
2022-10-05T00:48:27.140Z,0.68
2022-10-05T00:51:25.817Z,0.60
2022-10-05T00:54:25.082Z,2.00
2022-10-05T00:57:28.231Z,1.75
2022-10-05T01:00:19.437Z,1.90
2022-10-05T01:03:11.766Z,1.42
2022-10-05T01:06:11.139Z,0.68
2022-10-05T01:09:05.501Z,0.25
2022-10-05T01:11:59.261Z,0.45
2022-10-05T01:14:54.600Z,0.82
2022-10-05T01:17:48.533Z,0.82
2022-10-05T01:20:45.516Z,0.50
2022-10-05T01:24:21.471Z,0.40
2022-10-05T01:27:40.576Z,0.73
2022-10-05T01:30:30.421Z,0.45
2022-10-05T01:33:22.800Z,0.28
2022-10-05T01:36:14.893Z,3.03
2022-10-05T01:39:08.220Z,0.47
2022-10-05T01:42:06.865Z,0.35
2022-10-05T01:45:01.500Z,0.98
2022-10-05T01:47:52.100Z,1.95
2022-10-05T01:50:47.867Z,1.02
2022-10-05T01:53:46.108Z,0.50
2022-10-05T01:56:41.184Z,0.30
2022-10-05T01:59:38.438Z,0.60
2022-10-05T02:02:30.794Z,0.90
2022-10-05T02:05:22.328Z,0.40
2022-10-05T02:08:14.509Z,0.65
2022-10-05T02:11:05.345Z,0.45
2022-10-05T02:13:57.626Z,0.38
2022-10-05T02:16:48.840Z,0.30
2022-10-05T02:19:42.905Z,0.40
2022-10-05T02:22:34.129Z,1.45
2022-10-05T02:25:25.363Z,0.30
2022-10-05T02:28:17.320Z,0.45
2022-10-05T02:31:09.020Z,0.65
2022-10-05T02:34:21.749Z,0.63
2022-10-05T02:37:19.968Z,0.52
2022-10-05T02:40:20.472Z,0.40
2022-10-05T02:43:18.528Z,0.25
2022-10-05T02:46:13.738Z,0.30
2022-10-05T02:49:13.982Z,1.08
2022-10-05T02:52:07.817Z,0.50
2022-10-05T02:55:02.290Z,0.50
2022-10-05T02:57:54.953Z,0.13
2022-10-05T03:00:48.021Z,0.82
2022-10-05T03:03:40.281Z,0.52
2022-10-05T03:06:33.529Z,1.08
2022-10-05T03:09:24.262Z,0.20
2022-10-05T03:12:27.532Z,0.28
2022-10-05T03:15:24.862Z,0.55
2022-10-05T03:18:21.673Z,0.40
2022-10-05T03:21:20.834Z,0.38
2022-10-05T03:24:24.432Z,0.30
2022-10-05T03:27:24.019Z,0.50
2022-10-05T03:30:15.742Z,0.32
2022-10-05T03:33:09.348Z,0.30
2022-10-05T03:36:04.049Z,0.20
2022-10-05T03:38:58.822Z,1.10
2022-10-05T03:41:50.066Z,0.50
2022-10-05T03:44:46.964Z,0.30
2022-10-05T03:47:41.506Z,0.20
2022-10-05T03:50:40.647Z,0.30
2022-10-05T03:53:31.747Z,0.65
2022-10-05T03:56:31.297Z,0.73
2022-10-05T03:59:22.741Z,0.30
2022-10-05T04:02:26.857Z,0.20
2022-10-05T04:05:17.663Z,0.52
2022-10-05T04:08:10.273Z,0.22
2022-10-05T04:11:00.806Z,0.55
2022-10-05T04:13:52.761Z,0.50
2022-10-05T04:16:43.860Z,1.23
2022-10-05T04:19:38.252Z,1.90
2022-10-05T04:22:30.425Z,4.78
2022-10-05T04:25:20.446Z,3.22
2022-10-05T04:28:13.786Z,7.30
2022-10-05T04:31:04.414Z,4.15
2022-10-05T04:34:01.029Z,2.92
2022-10-05T04:36:59.308Z,2.22
2022-10-05T04:39:56.277Z,4.18
2022-10-05T04:42:49.826Z,2.08
2022-10-05T04:45:59.020Z,2.33
2022-10-05T04:49:07.747Z,5.25
2022-10-05T04:52:00.961Z,33.83
2022-10-05T04:54:58.914Z,5.90
2022-10-05T04:57:55.295Z,5.50
2022-10-05T05:00:51.693Z,2.28
2022-10-05T05:03:48.432Z,7.97
2022-10-05T05:06:40.307Z,6.07
2022-10-05T05:09:47.943Z,3.95
2022-10-05T05:12:44.426Z,3.28
2022-10-05T05:15:42.976Z,4.15
2022-10-05T05:18:50.409Z,1.88
2022-10-05T05:21:46.324Z,1.60
2022-10-05T05:24:43.517Z,6.63
2022-10-05T05:27:42.087Z,0.98
2022-10-05T05:30:38.449Z,4.57
2022-10-05T05:33:33.641Z,6.00
2022-10-05T05:36:36.691Z,2.75
2022-10-05T05:39:26.218Z,3.28
2022-10-05T05:42:24.876Z,3.33
2022-10-05T05:45:18.655Z,4.03
2022-10-05T05:48:15.377Z,5.65
2022-10-05T05:51:08.339Z,5.10
2022-10-05T05:54:02.082Z,3.90
2022-10-05T05:56:54.651Z,4.18
2022-10-05T05:59:53.941Z,4.78
2022-10-05T06:02:44.845Z,2.55
2022-10-05T06:05:35.703Z,4.85
2022-10-05T06:08:29.716Z,3.05
2022-10-05T06:11:21.352Z,4.72
2022-10-05T06:14:13.410Z,3.90
2022-10-05T06:17:06.787Z,3.20
2022-10-05T06:20:02.421Z,2.85
2022-10-05T06:22:53.947Z,3.10
2022-10-05T06:25:50.286Z,2.95
2022-10-05T06:28:38.889Z,2.28
2022-10-05T06:31:39.017Z,3.10
2022-10-05T06:34:49.605Z,2.78
2022-10-05T06:37:58.495Z,2.40
2022-10-05T06:40:58.693Z,2.67
2022-10-05T06:43:57.073Z,2.92
2022-10-05T06:46:55.341Z,3.28
2022-10-05T06:49:52.842Z,4.90
2022-10-05T06:52:52.088Z,2.60
2022-10-05T06:55:44.961Z,1.55
2022-10-05T06:58:44.287Z,1.20
2022-10-05T07:01:42.488Z,1.40
2022-10-05T07:04:52.719Z,1.48
2022-10-05T07:07:46.427Z,6.03
2022-10-05T07:10:41.549Z,3.03
2022-10-05T07:14:00.940Z,2.20
2022-10-05T07:17:01.409Z,2.05
2022-10-05T07:19:57.989Z,2.47
2022-10-05T07:22:56.395Z,1.73
2022-10-05T07:25:50.156Z,1.60
2022-10-05T07:28:46.213Z,1.85
2022-10-05T07:31:38.010Z,1.90
2022-10-05T07:34:37.857Z,1.20
2022-10-05T07:37:50.197Z,1.83
2022-10-05T07:40:42.368Z,1.10
2022-10-05T07:44:00.604Z,2.38
2022-10-05T07:46:51.855Z,1.30
2022-10-05T07:49:48.871Z,3.60
2022-10-05T07:52:41.656Z,1.83
2022-10-05T07:55:35.302Z,1.58
2022-10-05T07:58:29.451Z,1.10
2022-10-05T08:01:21.964Z,3.88
2022-10-05T08:04:15.380Z,2.55
2022-10-05T08:07:06.899Z,1.35
2022-10-05T08:10:01.189Z,3.85
2022-10-05T08:12:56.134Z,1.38
2022-10-05T08:15:48.354Z,1.73
2022-10-05T08:18:44.379Z,2.92
2022-10-05T08:21:35.692Z,1.40
2022-10-05T08:24:35.634Z,2.08
2022-10-05T08:27:28.192Z,1.85
2022-10-05T08:30:17.834Z,0.98
2022-10-05T08:33:10.905Z,0.68
2022-10-05T08:36:06.234Z,2.17
2022-10-05T08:38:56.909Z,1.50
2022-10-05T08:42:03.628Z,1.60
2022-10-05T08:45:17.856Z,1.17
2022-10-05T08:48:54.022Z,0.80
2022-10-05T08:52:09.075Z,1.15
2022-10-05T08:55:19.177Z,0.82
2022-10-05T08:58:35.669Z,0.73
2022-10-05T09:01:31.796Z,3.67
2022-10-05T09:04:43.872Z,0.90
2022-10-05T09:08:20.290Z,1.92
2022-10-05T09:11:13.412Z,1.13
2022-10-05T09:14:23.400Z,0.93
2022-10-05T09:17:28.355Z,1.08
2022-10-05T09:20:28.547Z,1.25
2022-10-05T09:23:31.378Z,0.90
2022-10-05T09:26:44.137Z,2.10
2022-10-05T09:30:07.234Z,0.70
2022-10-05T09:33:26.071Z,1.20
2022-10-05T09:36:47.742Z,1.80
2022-10-05T09:39:44.858Z,1.58
2022-10-05T09:42:52.418Z,2.70
2022-10-05T09:46:13.251Z,0.55
2022-10-05T09:49:22.824Z,0.75
2022-10-05T09:52:19.953Z,0.73
2022-10-05T09:55:32.607Z,1.65
2022-10-05T09:58:39.499Z,0.63
2022-10-05T10:01:51.714Z,0.68
2022-10-05T10:05:08.145Z,0.95
2022-10-05T10:08:04.765Z,1.05
2022-10-05T10:11:22.803Z,1.85
2022-10-05T10:14:49.608Z,0.73
2022-10-05T10:18:01.747Z,0.63
2022-10-05T10:21:12.947Z,0.88
2022-10-05T10:24:06.775Z,1.90
2022-10-05T10:27:13.576Z,0.82
2022-10-05T10:30:19.859Z,0.63
2022-10-05T10:33:32.596Z,0.75
2022-10-05T10:36:27.555Z,0.95
2022-10-05T10:39:23.118Z,1.17
2022-10-05T10:42:28.800Z,0.63
2022-10-05T10:45:22.846Z,0.70
2022-10-05T10:48:32.969Z,0.43
2022-10-05T10:51:57.642Z,1.67
2022-10-05T10:55:05.363Z,0.40
2022-10-05T10:58:15.754Z,1.10
2022-10-05T11:01:13.753Z,0.88
2022-10-05T11:04:24.946Z,0.55
2022-10-05T11:07:26.535Z,0.68
2022-10-05T11:10:31.079Z,0.60
2022-10-05T11:13:40.657Z,0.35
2022-10-05T11:17:02.706Z,0.65
2022-10-05T11:20:03.573Z,2.17
2022-10-05T11:23:11.654Z,0.63
2022-10-05T11:26:11.102Z,0.95
2022-10-05T11:29:31.319Z,0.50
2022-10-05T11:32:35.853Z,1.08
2022-10-05T11:35:34.441Z,0.30
2022-10-05T11:38:59.230Z,1.33
2022-10-05T11:42:26.430Z,0.50
2022-10-05T11:45:21.805Z,0.52
2022-10-05T11:48:26.340Z,2.90
2022-10-05T11:51:29.255Z,1.67
2022-10-05T11:54:26.506Z,0.30
2022-10-05T11:57:19.761Z,3.22
2022-10-05T12:00:15.048Z,0.50
2022-10-05T12:03:23.031Z,1.23
2022-10-05T12:06:23.733Z,0.50
2022-10-05T12:09:30.475Z,0.68
2022-10-05T12:12:22.869Z,0.40
2022-10-05T12:15:20.735Z,0.57
2022-10-05T12:18:14.586Z,0.85
2022-10-05T12:21:06.524Z,0.63
2022-10-05T12:23:58.035Z,0.30
2022-10-05T12:26:50.957Z,0.35
2022-10-05T12:29:46.488Z,0.43
2022-10-05T12:32:39.490Z,0.60
2022-10-05T12:35:47.317Z,0.75
2022-10-05T12:38:40.196Z,0.40
2022-10-05T12:41:33.024Z,0.20
2022-10-05T12:44:46.377Z,0.90
2022-10-05T12:47:42.037Z,0.40
2022-10-05T12:50:36.763Z,0.17
2022-10-05T12:53:35.542Z,0.22
2022-10-05T12:56:32.544Z,0.55
2022-10-05T12:59:32.551Z,0.35
2022-10-05T13:02:33.329Z,0.45
2022-10-05T13:05:31.218Z,0.70
2022-10-05T13:08:26.065Z,0.52
2022-10-05T13:11:19.136Z,0.30
2022-10-05T13:14:17.725Z,0.20
2022-10-05T13:17:09.165Z,0.40
2022-10-05T13:20:03.618Z,0.90
2022-10-05T13:22:58.559Z,2.05
2022-10-05T13:25:53.800Z,0.90
2022-10-05T13:28:45.655Z,0.30
2022-10-05T13:31:37.149Z,0.40
2022-10-05T13:34:31.101Z,0.30
2022-10-05T13:37:28.148Z,1.08
2022-10-05T13:40:23.396Z,0.20
2022-10-05T13:43:17.917Z,2.63
2022-10-05T13:46:09.150Z,2.53
2022-10-05T13:49:06.450Z,8.20
2022-10-05T13:52:00.329Z,7.75
2022-10-05T13:54:57.669Z,2.72
2022-10-05T13:57:53.359Z,7.03
2022-10-05T14:00:48.577Z,4.60
2022-10-05T14:03:38.550Z,3.50
2022-10-05T14:06:30.614Z,2.85
2022-10-05T14:09:30.711Z,4.97
2022-10-05T14:12:24.476Z,3.40
2022-10-05T14:15:22.209Z,1.98
2022-10-05T14:18:24.341Z,4.78
2022-10-05T14:21:23.107Z,56.58
2022-10-05T14:27:35.379Z,57.55
2022-10-05T14:30:25.696Z,29.83
2022-10-05T14:33:17.321Z,52.55
2022-10-05T14:36:12.264Z,15.73
2022-10-05T14:39:03.661Z,10.63
2022-10-05T14:41:52.233Z,16.15
2022-10-05T14:44:42.049Z,7.63
2022-10-05T14:47:34.251Z,4.28
2022-10-05T14:50:29.461Z,8.15
2022-10-05T14:53:21.203Z,5.88
2022-10-05T14:56:25.226Z,6.32
2022-10-05T14:59:23.388Z,3.15
2022-10-05T15:02:26.795Z,3.50
2022-10-05T15:05:18.141Z,4.15
2022-10-05T15:08:19.480Z,5.68
2022-10-05T15:11:09.719Z,2.88
2022-10-05T15:13:58.181Z,7.05
2022-10-05T15:16:46.985Z,5.97
2022-10-05T15:19:45.424Z,4.68
2022-10-05T15:22:42.687Z,5.45
2022-10-05T15:25:38.095Z,8.00
2022-10-05T15:28:34.046Z,6.13
2022-10-05T15:31:30.035Z,4.40
2022-10-05T15:34:22.643Z,7.85
2022-10-05T15:37:17.834Z,4.78
2022-10-05T15:40:09.055Z,1.52
2022-10-05T15:43:03.703Z,7.55
2022-10-05T15:46:01.193Z,2.40
2022-10-05T15:48:55.788Z,5.97
2022-10-05T15:51:53.416Z,2.22
2022-10-05T15:55:20.997Z,3.88
2022-10-05T15:58:47.880Z,4.43
2022-10-05T16:01:45.151Z,3.38
2022-10-05T16:04:43.025Z,3.72
2022-10-05T16:07:56.196Z,4.65
2022-10-05T16:10:47.084Z,2.58
2022-10-05T16:13:38.719Z,5.03
2022-10-05T16:16:31.209Z,4.35
2022-10-05T16:19:31.238Z,6.20
2022-10-05T16:22:23.931Z,3.65
2022-10-05T16:25:16.928Z,3.13
2022-10-05T16:28:18.546Z,2.00
2022-10-05T16:31:16.442Z,3.78
2022-10-05T16:34:10.784Z,5.13
2022-10-05T16:37:03.365Z,7.03
2022-10-05T16:39:56.045Z,5.35
2022-10-05T16:42:51.213Z,5.72
2022-10-05T16:45:52.236Z,3.90
2022-10-05T16:48:49.463Z,3.88
2022-10-05T16:51:44.543Z,10.20
2022-10-05T16:54:36.294Z,2.65
2022-10-05T16:57:26.776Z,7.25
2022-10-05T17:00:21.310Z,3.63
2022-10-05T17:03:18.263Z,9.57
2022-10-05T17:06:37.988Z,5.78
2022-10-05T17:09:50.807Z,5.38
2022-10-05T17:12:51.329Z,5.65
2022-10-05T17:15:50.668Z,3.40
2022-10-05T17:19:12.804Z,7.97
2022-10-05T17:22:03.100Z,4.88
2022-10-05T17:24:56.328Z,4.97
2022-10-05T17:27:52.979Z,6.07
2022-10-05T17:30:53.922Z,3.65
2022-10-05T17:34:30.915Z,4.75
2022-10-05T17:37:36.261Z,4.20
2022-10-05T17:40:37.678Z,2.47
2022-10-05T17:43:27.495Z,3.38
2022-10-05T17:46:45.717Z,5.05
2022-10-05T17:49:47.993Z,3.90
2022-10-05T17:53:10.381Z,6.70
2022-10-05T17:56:07.146Z,5.43
2022-10-05T17:59:00.166Z,2.47
2022-10-05T18:02:16.676Z,2.75
2022-10-05T18:05:26.049Z,4.47
2022-10-05T18:08:32.687Z,2.97
2022-10-05T18:11:37.118Z,3.75
2022-10-05T18:14:26.492Z,2.60
2022-10-05T18:17:16.266Z,5.35
2022-10-05T18:20:19.005Z,7.13
2022-10-05T18:23:35.983Z,2.47
2022-10-05T18:26:34.137Z,3.80
2022-10-05T18:29:49.821Z,3.35
2022-10-05T18:32:48.635Z,8.55
2022-10-05T18:35:46.885Z,3.72
2022-10-05T18:38:45.910Z,3.92
2022-10-05T18:41:45.564Z,3.97
2022-10-05T18:44:40.426Z,2.13
2022-10-05T18:47:32.991Z,3.03
2022-10-05T18:50:27.694Z,3.45
2022-10-05T18:53:24.421Z,1.60
2022-10-05T18:56:19.766Z,2.67
2022-10-05T18:59:24.302Z,6.68
2022-10-05T19:02:20.407Z,2.05
2022-10-05T19:05:45.773Z,2.92
2022-10-05T19:08:32.990Z,2.15
2022-10-05T19:11:27.866Z,2.47
2022-10-05T19:14:22.066Z,1.73
2022-10-05T19:17:20.993Z,1.58
2022-10-05T19:20:17.351Z,5.97
2022-10-05T19:23:23.923Z,4.45
2022-10-05T19:26:16.090Z,1.80
2022-10-05T19:29:14.314Z,6.68
2022-10-05T19:32:05.340Z,4.65
2022-10-05T19:35:05.267Z,4.65
2022-10-05T19:38:01.314Z,10.45
2022-10-05T19:40:57.763Z,4.97
2022-10-05T19:44:02.495Z,8.57
2022-10-05T19:46:57.659Z,4.70
2022-10-05T19:49:50.953Z,7.22
2022-10-05T19:52:49.006Z,2.35
2022-10-05T19:55:39.673Z,3.35
2022-10-05T19:58:29.516Z,3.28
2022-10-05T20:01:25.807Z,5.20
2022-10-05T20:04:35.291Z,5.47
2022-10-05T20:07:23.732Z,1.50
2022-10-05T20:10:29.029Z,3.15
2022-10-05T20:13:21.513Z,4.22
2022-10-05T20:16:36.766Z,9.98
2022-10-05T20:19:51.336Z,7.30
2022-10-05T20:22:46.331Z,1.35
2022-10-05T20:25:40.225Z,3.85
2022-10-05T20:28:32.200Z,1.48
2022-10-05T20:31:21.422Z,2.00
2022-10-05T20:34:09.893Z,3.08
2022-10-05T20:36:59.829Z,1.73
2022-10-05T20:39:48.265Z,1.65
2022-10-05T20:42:36.687Z,1.52
2022-10-05T20:45:25.411Z,1.45
2022-10-05T20:48:16.453Z,1.13
2022-10-05T20:51:04.952Z,1.73
2022-10-05T20:53:56.135Z,7.60
2022-10-05T20:56:45.813Z,0.98
2022-10-05T20:59:34.717Z,3.88
2022-10-05T21:02:23.217Z,3.70
2022-10-05T21:05:12.802Z,2.40
2022-10-05T21:08:01.729Z,2.50
2022-10-05T21:10:51.491Z,2.97
2022-10-05T21:13:44.590Z,4.13
2022-10-05T21:16:36.007Z,6.25
2022-10-05T21:19:24.623Z,1.27
2022-10-05T21:22:13.073Z,6.35
2022-10-05T21:25:02.362Z,2.05
2022-10-05T21:27:52.265Z,1.52
2022-10-05T21:30:40.725Z,1.45
2022-10-05T21:33:29.527Z,2.05
2022-10-05T21:36:22.477Z,1.92
2022-10-05T21:39:13.189Z,3.80
2022-10-05T21:42:01.582Z,1.95
2022-10-05T21:44:51.358Z,1.50
2022-10-05T21:47:39.771Z,5.75
2022-10-05T21:50:29.050Z,1.30
2022-10-05T21:53:18.848Z,1.25
2022-10-05T21:56:10.572Z,1.48
2022-10-05T21:58:59.252Z,3.33
2022-10-05T22:01:49.117Z,1.70
2022-10-05T22:04:37.987Z,0.93
2022-10-05T22:07:26.445Z,3.40
2022-10-05T22:10:16.304Z,0.98
2022-10-05T22:13:05.919Z,1.42
2022-10-05T22:15:55.352Z,1.80
2022-10-05T22:18:45.822Z,5.07
2022-10-05T22:21:37.943Z,3.33
2022-10-05T22:24:26.494Z,1.92
2022-10-05T22:27:15.061Z,1.40
2022-10-05T22:30:03.917Z,1.27
2022-10-05T22:32:52.359Z,1.92
2022-10-05T22:35:42.173Z,3.90
2022-10-05T22:38:31.307Z,1.75
2022-10-05T22:41:20.547Z,0.80
2022-10-05T22:44:09.074Z,1.23
2022-10-05T22:46:57.519Z,2.05
2022-10-05T22:49:46.002Z,2.03
2022-10-05T22:52:35.770Z,1.25
2022-10-05T22:55:24.556Z,1.50
2022-10-05T22:58:13.128Z,1.95
2022-10-05T23:01:03.649Z,1.20
2022-10-05T23:03:52.229Z,1.45
2022-10-05T23:06:41.060Z,1.13
2022-10-05T23:09:30.949Z,1.38
2022-10-05T23:12:19.427Z,0.90
2022-10-05T23:15:09.419Z,1.02
2022-10-05T23:17:57.878Z,1.27
2022-10-05T23:20:46.336Z,0.70
2022-10-05T23:23:37.996Z,1.88
2022-10-05T23:26:28.086Z,3.13
2022-10-05T23:29:16.526Z,2.15
2022-10-05T23:32:06.421Z,0.82
2022-10-05T23:34:56.431Z,0.55
2022-10-05T23:37:45.906Z,0.98
2022-10-05T23:40:34.469Z,0.80
2022-10-05T23:43:24.429Z,2.72
2022-10-05T23:46:13.691Z,0.85
2022-10-05T23:49:02.129Z,0.77
2022-10-05T23:51:50.636Z,1.17
2022-10-05T23:54:39.164Z,0.55
2022-10-05T23:57:27.611Z,4.03
